Time;durP1;ratioP1;P1;durP2;ratioP2;P2;SDS_P1;SDS_P2;PMS_P1;PMS_P2;Temp;Humidity;BMP_temperature;BMP_pressure;BME280_temperature;BME280_humidity;BME280_pressure;Samples;Min_cycle;Max_cycle;Signal;HPM_P1;HPM_P2
2021/10/06 00:02:23;;;;;;;8.18;3.28;;;;;;;;;;5072425;28;20090;-70
2021/10/06 00:04:50;;;;;;;10.32;3.95;;;21.30;86.10;;;;;;5072347;28;20021;-70
2021/10/06 00:07:17;;;;;;;7.43;3.90;;;21.20;84.60;;;;;;5072334;28;20017;-70
2021/10/06 00:09:45;;;;;;;7.47;3.30;;;21.20;84.60;;;;;;5072550;28;20189;-70
2021/10/06 00:12:12;;;;;;;7.40;3.63;;;21.10;78.50;;;;;;5072602;28;20028;-70
2021/10/06 00:14:39;;;;;;;11.07;3.85;;;21.20;76.80;;;;;;5072363;28;20021;-71
2021/10/06 00:17:07;;;;;;;7.80;3.80;;;21.20;75.80;;;;;;5072236;28;20123;-70
2021/10/06 00:19:34;;;;;;;6.68;3.45;;;21.20;76.20;;;;;;5072287;28;20430;-70
2021/10/06 00:22:02;;;;;;;8.05;4.20;;;21.50;76.50;;;;;;5071070;28;20493;-70
2021/10/06 00:24:29;;;;;;;7.45;3.53;;;21.40;75.80;;;;;;5072285;28;20040;-70
2021/10/06 00:26:56;;;;;;;5.93;3.40;;;21.80;74.60;;;;;;5072251;28;20020;-69
2021/10/06 00:29:24;;;;;;;7.22;3.70;;;21.70;73.10;;;;;;5072295;28;20082;-71
2021/10/06 00:31:51;;;;;;;6.78;3.60;;;21.80;73.40;;;;;;5072184;28;20017;-70
2021/10/06 00:34:20;;;;;;;9.63;3.40;;;22.00;75.20;;;;;;5072387;28;20032;-70
2021/10/06 00:36:47;;;;;;;9.43;3.45;;;22.10;74.20;;;;;;5072323;28;20024;-71
2021/10/06 00:39:15;;;;;;;8.45;3.30;;;22.40;77.30;;;;;;5074039;28;20126;-71
2021/10/06 00:41:42;;;;;;;5.68;3.70;;;22.30;73.40;;;;;;5076261;28;20013;-70
2021/10/06 00:44:19;;;;;;;5.53;3.22;;;22.10;73.10;;;;;;5076220;28;20021;-71
2021/10/06 00:46:48;;;;;;;8.35;3.60;;;22.20;73.40;;;;;;5076111;28;20070;-71
2021/10/06 00:49:17;;;;;;;8.65;4.03;;;22.30;72.40;;;;;;5075992;28;20016;-71
2021/10/06 00:51:44;;;;;;;5.95;3.30;;;22.50;71.40;;;;;;5074656;28;20024;-71
2021/10/06 00:54:12;;;;;;;8.05;3.67;;;22.60;70.30;;;;;;5075923;28;20097;-71
2021/10/06 00:56:39;;;;;;;7.57;3.38;;;22.70;70.10;;;;;;5075770;28;20362;-70
2021/10/06 00:59:07;;;;;;;6.10;3.28;;;23.00;70.20;;;;;;5075636;28;20099;-71
2021/10/06 01:01:34;;;;;;;7.18;3.30;;;23.10;70.00;;;;;;5075818;28;20047;-71
2021/10/06 01:04:03;;;;;;;5.32;3.95;;;23.10;68.70;;;;;;5074516;28;20546;-71
2021/10/06 01:06:32;;;;;;;10.85;3.30;;;23.10;67.00;;;;;;5075751;28;20027;-71
2021/10/06 01:09:00;;;;;;;4.72;3.20;;;23.00;68.30;;;;;;5075827;28;20090;-71
2021/10/06 01:11:29;;;;;;;7.97;3.38;;;23.40;66.40;;;;;;5074305;28;20024;-72
2021/10/06 01:13:57;;;;;;;7.57;3.40;;;23.70;66.10;;;;;;5075884;28;20468;-72
2021/10/06 01:16:25;;;;;;;10.32;4.40;;;23.90;65.80;;;;;;5075440;28;20143;-72
2021/10/06 01:18:52;;;;;;;9.15;3.90;;;24.00;65.30;;;;;;5075793;28;20038;-72
2021/10/06 01:21:20;;;;;;;7.85;3.50;;;23.80;65.20;;;;;;5074126;28;20059;-72
2021/10/06 01:23:50;;;;;;;6.50;3.00;;;23.90;65.10;;;;;;5075398;28;20108;-71
2021/10/06 01:26:21;;;;;;;6.68;3.08;;;23.70;64.80;;;;;;5075363;28;20025;-71
2021/10/06 01:28:54;;;;;;;7.38;3.58;;;23.90;65.40;;;;;;5075353;28;20021;-72
2021/10/06 01:31:27;;;;;;;10.73;3.67;;;24.00;66.70;;;;;;5075657;28;20016;-72
2021/10/06 01:33:55;;;;;;;7.13;3.47;;;24.00;63.50;;;;;;5075388;28;20036;-72
2021/10/06 01:36:23;;;;;;;8.55;3.58;;;24.20;64.00;;;;;;5075047;28;20103;-71
2021/10/06 01:38:50;;;;;;;5.80;3.10;;;24.60;63.30;;;;;;5075171;28;20065;-72
2021/10/06 01:41:17;;;;;;;6.00;3.13;;;24.70;63.70;;;;;;5073775;28;20028;-71
2021/10/06 01:43:45;;;;;;;7.00;3.30;;;24.40;63.30;;;;;;5073756;28;20025;-71
2021/10/06 01:46:12;;;;;;;4.50;2.72;;;24.60;63.80;;;;;;5074940;28;20017;-72
2021/10/06 01:48:39;;;;;;;7.57;2.88;;;24.80;62.60;;;;;;5074989;28;20099;-71
2021/10/06 01:51:07;;;;;;;6.70;3.17;;;24.80;59.60;;;;;;5074677;28;20444;-71
2021/10/06 01:53:39;;;;;;;6.05;3.42;;;24.60;60.30;;;;;;5073597;28;20028;-71
2021/10/06 01:56:07;;;;;;;4.95;3.33;;;24.90;59.30;;;;;;5073478;28;20025;-71
2021/10/06 01:58:34;;;;;;;6.93;3.42;;;25.10;60.60;;;;;;5074516;28;20025;-72
2021/10/06 02:01:02;;;;;;;7.53;3.25;;;25.00;61.10;;;;;;5074461;28;20482;-72
2021/10/06 02:03:29;;;;;;;4.85;3.13;;;25.10;61.60;;;;;;5074529;28;20025;-72
2021/10/06 02:05:57;;;;;;;7.55;3.58;;;25.40;62.10;;;;;;5074503;28;20473;-71
2021/10/06 02:08:24;;;;;;;7.40;3.80;;;25.50;59.50;;;;;;5074404;28;20036;-72
2021/10/06 02:10:52;;;;;;;10.07;3.30;;;25.50;60.00;;;;;;5073069;28;20021;-72
2021/10/06 02:13:19;;;;;;;6.57;3.03;;;25.30;58.60;;;;;;5074264;28;20029;-71
2021/10/06 02:15:47;;;;;;;4.60;3.30;;;25.40;60.40;;;;;;5074281;28;20457;-71
2021/10/06 02:18:15;;;;;;;7.25;3.00;;;25.60;58.40;;;;;;5074429;28;20024;-72
2021/10/06 02:20:42;;;;;;;4.97;3.22;;;25.60;55.70;;;;;;5074211;28;20024;-72
2021/10/06 02:23:13;;;;;;;4.43;3.10;;;25.80;56.60;;;;;;5074458;28;20017;-71
2021/10/06 02:25:41;;;;;;;5.78;3.10;;;25.60;55.80;;;;;;5074283;28;20020;-71
2021/10/06 02:28:09;;;;;;;4.78;3.13;;;25.20;53.70;;;;;;5072821;28;20024;-72
2021/10/06 02:30:37;;;;;;;7.63;3.30;;;25.10;54.20;;;;;;5074101;28;20040;-72
2021/10/06 02:33:05;;;;;;;5.22;3.25;;;25.20;55.20;;;;;;5074156;28;20385;-71
2021/10/06 02:35:32;;;;;;;6.10;3.17;;;25.60;55.00;;;;;;5072871;28;20021;-72
2021/10/06 02:37:59;;;;;;;7.07;3.35;;;26.00;56.20;;;;;;5073906;28;20032;-72
2021/10/06 02:40:27;;;;;;;7.28;3.42;;;26.10;62.60;;;;;;5074106;28;20020;-72
2021/10/06 02:42:54;;;;;;;6.10;3.70;;;25.80;61.80;;;;;;5073931;28;20024;-72
2021/10/06 02:45:22;;;;;;;6.65;3.38;;;25.40;64.20;;;;;;5073885;28;20020;-72
2021/10/06 02:47:50;;;;;;;8.23;3.83;;;25.30;64.10;;;;;;5072378;28;20017;-71
2021/10/06 02:50:21;;;;;;;8.15;4.22;;;24.80;64.80;;;;;;5072368;28;20119;-72
2021/10/06 02:52:48;;;;;;;9.57;3.70;;;24.50;63.90;;;;;;5072460;28;20054;-72
2021/10/06 02:55:16;;;;;;;7.47;3.50;;;24.60;64.50;;;;;;5073687;28;20024;-72
2021/10/06 02:57:44;;;;;;;10.57;4.10;;;24.60;65.60;;;;;;5073621;28;20028;-71
2021/10/06 03:00:11;;;;;;;6.78;3.50;;;24.70;66.80;;;;;;5073471;28;20032;-72
2021/10/06 03:02:40;;;;;;;8.77;3.92;;;24.70;65.70;;;;;;5071577;28;20028;-73
2021/10/06 03:05:11;;;;;;;5.43;3.60;;;24.90;64.20;;;;;;5073366;28;20111;-73
2021/10/06 03:07:39;;;;;;;11.15;3.95;;;25.00;63.50;;;;;;5073851;28;20039;-72
2021/10/06 03:10:09;;;;;;;7.97;3.67;;;24.90;66.00;;;;;;5073339;28;20025;-72
2021/10/06 03:12:37;;;;;;;7.72;3.63;;;25.30;65.30;;;;;;5073438;28;20120;-73
2021/10/06 03:15:06;;;;;;;6.55;3.70;;;25.50;64.90;;;;;;5073252;28;20025;-73
2021/10/06 03:17:33;;;;;;;7.57;3.90;;;25.30;63.80;;;;;;5073215;28;20049;-72
2021/10/06 03:20:01;;;;;;;6.45;3.55;;;25.10;63.30;;;;;;5071980;28;20485;-72
2021/10/06 03:22:28;;;;;;;9.55;4.00;;;25.00;62.60;;;;;;5073283;28;20013;-72
2021/10/06 03:24:55;;;;;;;6.15;3.47;;;24.60;62.90;;;;;;5073136;28;20028;-73
2021/10/06 03:27:23;;;;;;;7.55;4.07;;;24.90;64.10;;;;;;5071929;28;20074;-72
2021/10/06 03:29:50;;;;;;;7.15;4.00;;;25.00;63.30;;;;;;5071845;28;20074;-72
2021/10/06 03:32:18;;;;;;;6.95;3.90;;;24.80;63.60;;;;;;5073167;28;20029;-73
2021/10/06 03:34:45;;;;;;;7.88;3.80;;;24.60;64.20;;;;;;5073091;28;20550;-72
2021/10/06 03:37:12;;;;;;;7.47;4.05;;;24.70;65.40;;;;;;5072816;28;20100;-73
2021/10/06 03:39:40;;;;;;;9.07;3.92;;;24.80;66.80;;;;;;5072779;28;20048;-73
2021/10/06 03:42:07;;;;;;;7.70;4.18;;;24.70;64.70;;;;;;5071446;28;20027;-73
2021/10/06 03:44:35;;;;;;;6.80;3.92;;;24.80;66.60;;;;;;5072842;28;20129;-73
2021/10/06 03:47:02;;;;;;;7.55;4.00;;;24.80;66.00;;;;;;5072622;28;20477;-73
2021/10/06 03:49:29;;;;;;;7.85;3.90;;;24.90;66.50;;;;;;5071511;28;20025;-72
2021/10/06 03:51:57;;;;;;;9.45;4.00;;;24.70;64.90;;;;;;5071470;28;20033;-73
2021/10/06 03:54:24;;;;;;;7.85;4.43;;;24.80;66.20;;;;;;5072587;28;20025;-72
2021/10/06 03:56:52;;;;;;;9.15;4.28;;;24.70;66.00;;;;;;5072483;28;20105;-73
2021/10/06 03:59:20;;;;;;;7.75;4.07;;;24.60;66.10;;;;;;5072355;28;20036;-73
2021/10/06 04:01:47;;;;;;;6.97;4.20;;;24.50;65.90;;;;;;5072463;28;20021;-72
2021/10/06 04:04:14;;;;;;;7.18;3.95;;;24.40;66.60;;;;;;5070995;28;20052;-71
2021/10/06 04:06:42;;;;;;;7.88;3.50;;;24.10;67.20;;;;;;5072552;28;20023;-72
2021/10/06 04:09:09;;;;;;;5.78;3.25;;;24.40;67.30;;;;;;5071098;28;20073;-72
2021/10/06 04:11:36;;;;;;;6.22;3.33;;;24.40;65.70;;;;;;5072523;28;20021;-72
2021/10/06 04:14:04;;;;;;;6.30;3.50;;;24.30;64.70;;;;;;5074306;28;20078;-72
2021/10/06 04:16:31;;;;;;;7.60;3.88;;;24.00;65.90;;;;;;5076574;28;20111;-71
2021/10/06 04:18:58;;;;;;;9.63;3.92;;;24.00;66.30;;;;;;5076665;28;20032;-73
2021/10/06 04:21:25;;;;;;;6.43;3.58;;;24.00;66.90;;;;;;5076460;28;20028;-72
2021/10/06 04:23:53;;;;;;;8.25;3.58;;;23.70;66.50;;;;;;5075209;28;20024;-73
2021/10/06 04:26:20;;;;;;;7.03;4.00;;;24.00;66.90;;;;;;5076538;28;20028;-73
2021/10/06 04:28:47;;;;;;;5.45;3.45;;;24.00;67.10;;;;;;5075124;28;20020;-72
2021/10/06 04:31:18;;;;;;;5.43;3.33;;;23.90;66.50;;;;;;5075201;28;20608;-72
2021/10/06 04:33:45;;;;;;;;;;;23.90;66.40;;;;;;5076841;28;20020;-71
2021/10/06 04:36:13;;;;;;;6.32;3.33;;;23.80;66.30;;;;;;5076423;28;19947;-71
2021/10/06 04:38:40;;;;;;;6.13;3.65;;;23.60;67.60;;;;;;5076295;28;20048;-72
2021/10/06 04:41:08;;;;;;;6.03;3.88;;;23.50;68.60;;;;;;5076156;28;20043;-72
2021/10/06 04:43:36;;;;;;;8.23;3.90;;;23.50;69.20;;;;;;5076194;28;20031;-72
2021/10/06 04:46:03;;;;;;;8.73;3.80;;;23.70;70.30;;;;;;5074799;28;20029;-72
2021/10/06 04:48:31;;;;;;;8.35;3.80;;;23.70;70.30;;;;;;5076016;28;20028;-71
2021/10/06 04:50:58;;;;;;;6.93;3.67;;;23.60;69.80;;;;;;5074647;28;20031;-72
2021/10/06 04:53:25;;;;;;;9.20;4.00;;;23.50;69.70;;;;;;5075867;28;20039;-72
2021/10/06 04:55:53;;;;;;;5.95;3.63;;;23.50;70.80;;;;;;5074646;28;20051;-72
2021/10/06 04:58:20;;;;;;;8.45;3.78;;;23.50;70.50;;;;;;5076140;28;20017;-72
2021/10/06 05:00:47;;;;;;;7.03;3.70;;;23.70;68.90;;;;;;5075839;28;20036;-72
2021/10/06 05:03:15;;;;;;;6.72;3.55;;;23.60;68.60;;;;;;5075859;28;20048;-72
2021/10/06 05:05:44;;;;;;;6.80;3.40;;;23.60;64.60;;;;;;5075609;28;20020;-72
2021/10/06 05:08:11;;;;;;;5.00;2.70;;;23.60;64.90;;;;;;5075760;28;20016;-71
2021/10/06 05:10:39;;;;;;;3.92;2.85;;;23.50;64.90;;;;;;5074400;28;20082;-72
2021/10/06 05:13:06;;;;;;;7.55;3.35;;;23.50;63.40;;;;;;5074291;28;20119;-72
2021/10/06 05:15:33;;;;;;;5.47;3.15;;;23.40;65.80;;;;;;5075374;28;20025;-72
2021/10/06 05:18:01;;;;;;;7.68;3.20;;;23.50;65.40;;;;;;5075534;28;20107;-72
2021/10/06 05:20:28;;;;;;;6.95;3.60;;;23.50;65.20;;;;;;5075338;28;20108;-72
2021/10/06 05:22:56;;;;;;;6.00;3.38;;;23.40;64.70;;;;;;5075337;28;20090;-73
2021/10/06 05:25:23;;;;;;;7.82;3.05;;;23.60;65.40;;;;;;5073414;28;20021;-72
2021/10/06 05:27:52;;;;;;;6.10;2.60;;;23.80;65.60;;;;;;5075426;28;20481;-72
2021/10/06 05:30:20;;;;;;;4.10;3.10;;;23.60;65.00;;;;;;5075302;28;20017;-72
2021/10/06 05:32:49;;;;;;;4.72;3.40;;;23.60;64.50;;;;;;5073883;28;20048;-72
2021/10/06 05:35:18;;;;;;;7.05;3.38;;;23.40;65.50;;;;;;5073955;28;20031;-73
2021/10/06 05:37:46;;;;;;;6.30;3.30;;;23.30;65.60;;;;;;5075137;28;20027;-72
2021/10/06 05:40:14;;;;;;;7.03;3.58;;;23.00;66.00;;;;;;5075007;28;20495;-72
2021/10/06 05:42:42;;;;;;;4.75;3.20;;;23.00;65.70;;;;;;5075175;28;20497;-73
2021/10/06 05:45:12;;;;;;;4.57;3.15;;;22.80;66.00;;;;;;5075000;28;20017;-73
2021/10/06 05:47:39;;;;;;;5.70;3.58;;;22.90;65.40;;;;;;5075013;28;20481;-73
2021/10/06 05:50:07;;;;;;;5.85;3.30;;;23.00;67.30;;;;;;5075015;28;20085;-73
2021/10/06 05:52:35;;;;;;;6.90;3.60;;;22.80;67.00;;;;;;5074888;28;20036;-73
2021/10/06 05:55:03;;;;;;;7.88;3.53;;;22.80;67.20;;;;;;5074683;28;20020;-73
2021/10/06 05:57:30;;;;;;;7.63;3.08;;;22.70;68.90;;;;;;5074782;28;20063;-73
2021/10/06 05:59:58;;;;;;;7.95;3.17;;;22.60;69.00;;;;;;5074665;28;20020;-74
2021/10/06 06:02:25;;;;;;;8.93;3.17;;;22.70;68.50;;;;;;5074670;28;20102;-72
2021/10/06 06:04:52;;;;;;;6.80;3.20;;;22.80;68.90;;;;;;5074650;28;20052;-72
2021/10/06 06:07:20;;;;;;;5.05;2.60;;;22.70;68.50;;;;;;5074557;28;20410;-73
2021/10/06 06:09:47;;;;;;;5.78;2.80;;;22.60;69.10;;;;;;5074544;28;20099;-73
2021/10/06 06:12:14;;;;;;;4.10;2.80;;;22.50;69.30;;;;;;5074414;28;20020;-73
2021/10/06 06:14:42;;;;;;;5.32;2.80;;;22.40;66.80;;;;;;5074398;28;20078;-73
2021/10/06 06:17:10;;;;;;;6.22;3.20;;;22.60;66.80;;;;;;5072722;28;20048;-73
2021/10/06 06:19:38;;;;;;;5.10;2.78;;;22.60;67.00;;;;;;5074137;28;20016;-73
2021/10/06 06:22:06;;;;;;;5.45;3.08;;;22.60;64.50;;;;;;5074181;28;20497;-73
2021/10/06 06:24:34;;;;;;;4.93;2.90;;;22.60;63.60;;;;;;5072746;28;20027;-74
2021/10/06 06:27:01;;;;;;;7.82;2.92;;;22.60;64.70;;;;;;5074121;28;20027;-72
2021/10/06 06:29:28;;;;;;;6.20;3.08;;;22.50;66.30;;;;;;5074047;28;20032;-72
2021/10/06 06:31:56;;;;;;;4.93;3.05;;;22.40;65.90;;;;;;5074052;28;20020;-71
2021/10/06 06:34:24;;;;;;;6.97;3.40;;;22.30;67.40;;;;;;5073974;28;20025;-72
2021/10/06 06:36:52;;;;;;;6.35;2.90;;;22.40;67.50;;;;;;5073171;28;20012;-72
2021/10/06 06:39:19;;;;;;;6.38;3.50;;;22.30;68.70;;;;;;5072634;28;20020;-71
2021/10/06 06:41:47;;;;;;;7.57;3.38;;;22.20;69.70;;;;;;5073922;28;20020;-71
2021/10/06 06:44:14;;;;;;;6.93;3.88;;;22.30;70.40;;;;;;5073797;28;20074;-72
2021/10/06 06:46:43;;;;;;;6.22;3.80;;;22.30;71.00;;;;;;5072578;28;20028;-72
2021/10/06 06:49:10;;;;;;;10.07;4.28;;;22.40;71.50;;;;;;5073717;28;20362;-71
2021/10/06 06:51:38;;;;;;;5.50;3.10;;;22.40;72.40;;;;;;5073731;28;20017;-72
2021/10/06 06:54:05;;;;;;;5.32;3.13;;;22.50;73.10;;;;;;5073801;28;20029;-72
2021/10/06 06:56:38;;;;;;;7.32;3.13;;;22.50;72.90;;;;;;5073465;28;20024;-72
2021/10/06 06:59:08;;;;;;;7.22;3.25;;;22.20;73.30;;;;;;5073609;28;20028;-73
2021/10/06 07:01:36;;;;;;;7.90;3.55;;;22.20;75.00;;;;;;5073625;28;20031;-72
2021/10/06 07:04:04;;;;;;;5.32;3.60;;;21.80;75.00;;;;;;5073676;28;20384;-72
2021/10/06 07:06:35;;;;;;;5.25;2.75;;;21.80;75.20;;;;;;5073717;28;20042;-72
2021/10/06 07:09:03;;;;;;;6.80;3.00;;;21.50;74.70;;;;;;5072225;28;20017;-73
2021/10/06 07:11:32;;;;;;;6.47;3.05;;;21.10;75.90;;;;;;5072044;28;20029;-72
2021/10/06 07:13:59;;;;;;;6.53;2.95;;;20.70;76.90;;;;;;5073258;28;20082;-73
2021/10/06 07:16:26;;;;;;;7.38;3.00;;;20.30;77.70;;;;;;5073183;28;20079;-72
2021/10/06 07:18:54;;;;;;;4.43;2.90;;;20.20;78.10;;;;;;5073181;28;20020;-73
2021/10/06 07:21:21;;;;;;;7.25;3.50;;;20.00;78.60;;;;;;5073054;28;20055;-72
2021/10/06 07:23:49;;;;;;;5.50;3.20;;;19.90;79.10;;;;;;5071876;28;20052;-73
2021/10/06 07:26:17;;;;;;;6.05;3.13;;;19.80;80.70;;;;;;5073185;28;20082;-72
2021/10/06 07:28:44;;;;;;;6.10;3.15;;;19.70;81.30;;;;;;5073127;28;20016;-72
2021/10/06 07:31:12;;;;;;;6.20;3.22;;;19.50;82.70;;;;;;5073145;28;20058;-72
2021/10/06 07:33:39;;;;;;;8.07;3.15;;;19.40;83.30;;;;;;5071763;28;20477;-72
2021/10/06 07:36:06;;;;;;;7.70;2.80;;;19.20;84.60;;;;;;5072927;28;20077;-70
2021/10/06 07:38:34;;;;;;;4.57;2.90;;;19.00;86.00;;;;;;5073367;28;20069;-72
2021/10/06 07:41:01;;;;;;;5.28;2.88;;;19.10;87.10;;;;;;5072631;28;20107;-72
2021/10/06 07:43:28;;;;;;;6.18;2.78;;;18.90;86.40;;;;;;5071453;28;20071;-72
2021/10/06 07:45:56;;;;;;;8.05;3.40;;;18.80;87.50;;;;;;5071560;28;20032;-72
2021/10/06 07:48:23;;;;;;;7.72;2.90;;;18.60;88.00;;;;;;5072433;28;20020;-71
2021/10/06 07:50:51;;;;;;;7.82;3.50;;;18.60;89.00;;;;;;5071229;28;20071;-72
2021/10/06 07:53:18;;;;;;;8.07;3.50;;;18.40;89.70;;;;;;5072571;28;20020;-71
2021/10/06 07:55:45;;;;;;;5.43;3.35;;;18.40;88.60;;;;;;5071036;28;20078;-72
2021/10/06 07:58:13;;;;;;;6.75;3.08;;;18.30;87.70;;;;;;5072471;28;20469;-71
2021/10/06 08:00:40;;;;;;;7.38;3.20;;;18.20;88.30;;;;;;5072471;28;20481;-71
2021/10/06 08:03:08;;;;;;;7.88;3.50;;;18.20;89.00;;;;;;5072489;28;20024;-72
2021/10/06 08:05:35;;;;;;;5.20;3.17;;;18.10;89.10;;;;;;5072398;28;20017;-72
2021/10/06 08:08:03;;;;;;;7.00;3.55;;;18.00;89.50;;;;;;5072406;28;20024;-71
2021/10/06 08:13:52;;;;;;;6.45;3.33;;;18.00;90.40;;;;;;5072805;28;20397;-71
2021/10/06 08:20:12;;;;;;;12.43;3.45;;;17.80;91.10;;;;;;5072840;28;20032;-71
2021/10/06 08:26:02;;;;;;;8.02;3.22;;;17.60;92.70;;;;;;5072869;28;20059;-70
2021/10/06 08:32:04;;;;;;;7.80;3.38;;;17.50;93.80;;;;;;5052926;28;20032;-72
2021/10/06 08:37:54;;;;;;;6.30;3.42;;;17.40;94.60;;;;;;5052669;28;20110;-71
2021/10/06 08:44:00;;;;;;;10.93;4.80;;;17.30;95.30;;;;;;5052809;28;20387;-72
2021/10/06 08:50:34;;;;;;;9.05;3.70;;;17.20;95.90;;;;;;5052331;28;20028;-72
2021/10/06 08:57:20;;;;;;;6.20;3.55;;;17.10;96.50;;;;;;5052484;28;20086;-70
2021/10/06 08:59:50;;;;;;;9.10;4.07;;;17.10;96.80;;;;;;5051085;28;20033;-71
2021/10/06 09:02:18;;;;;;;7.82;3.88;;;17.00;96.90;;;;;;5055830;28;20017;-70
2021/10/06 09:04:48;;;;;;;6.18;3.50;;;17.00;97.10;;;;;;5055625;28;20079;-71
2021/10/06 09:07:16;;;;;;;6.35;3.13;;;17.00;97.30;;;;;;5054844;28;20039;-71
2021/10/06 09:09:43;;;;;;;6.20;3.30;;;16.90;97.20;;;;;;5055788;28;20025;-71
2021/10/06 09:12:17;;;;;;;13.45;3.80;;;16.90;97.50;;;;;;5055630;28;20021;-71
2021/10/06 09:14:49;;;;;;;5.45;3.33;;;16.90;97.90;;;;;;5054437;28;20025;-71
2021/10/06 09:17:20;;;;;;;7.10;3.50;;;16.80;98.00;;;;;;5055664;28;20044;-70
2021/10/06 09:19:53;;;;;;;5.28;3.13;;;16.80;98.70;;;;;;5055591;28;20036;-71
2021/10/06 09:22:23;;;;;;;10.18;3.80;;;16.70;98.50;;;;;;5055656;28;20521;-70
2021/10/06 09:24:58;;;;;;;5.17;3.33;;;16.70;98.90;;;;;;5055652;28;20095;-71
2021/10/06 09:27:40;;;;;;;8.38;3.75;;;16.70;99.10;;;;;;5055485;28;20052;-71
2021/10/06 09:30:15;;;;;;;10.05;4.28;;;16.70;99.50;;;;;;5055429;28;20028;-71
2021/10/06 09:32:45;;;;;;;8.20;3.60;;;16.60;99.80;;;;;;5055365;28;20021;-71
2021/10/06 09:35:30;;;;;;;11.40;4.20;;;16.70;99.90;;;;;;5054046;28;20036;-70
2021/10/06 09:37:58;;;;;;;8.43;3.17;;;16.50;99.90;;;;;;5055316;28;20029;-71
2021/10/06 09:40:29;;;;;;;9.05;3.70;;;16.50;99.90;;;;;;5055262;28;20183;-71
2021/10/06 09:43:01;;;;;;;6.57;3.50;;;16.40;99.90;;;;;;5055219;28;20020;-71
2021/10/06 09:45:33;;;;;;;16.15;4.65;;;16.40;99.90;;;;;;5054107;28;20074;-70
2021/10/06 09:48:06;;;;;;;7.32;4.60;;;16.30;99.90;;;;;;5054163;28;20108;-70
2021/10/06 09:50:42;;;;;;;5.72;3.60;;;16.40;99.90;;;;;;5055112;28;20025;-71
2021/10/06 09:53:15;;;;;;;7.53;4.45;;;16.40;99.90;;;;;;5054994;28;20496;-71
2021/10/06 09:55:46;;;;;;;8.20;3.90;;;16.30;99.90;;;;;;5055113;28;20025;-73
2021/10/06 09:58:15;;;;;;;8.25;3.90;;;16.30;99.90;;;;;;5053560;28;20025;-71
2021/10/06 10:00:44;;;;;;;7.30;4.03;;;16.20;99.90;;;;;;5054760;28;20386;-71
2021/10/06 10:03:12;;;;;;;8.50;4.30;;;16.20;99.90;;;;;;5054892;28;20481;-72
2021/10/06 10:05:40;;;;;;;8.00;4.88;;;16.20;99.90;;;;;;5054677;28;20020;-72
2021/10/06 10:08:09;;;;;;;9.50;4.00;;;16.20;99.90;;;;;;5054902;28;20024;-70
2021/10/06 10:10:38;;;;;;;6.07;3.65;;;16.20;99.90;;;;;;5053573;28;20056;-71
2021/10/06 10:13:06;;;;;;;5.63;3.72;;;16.20;99.90;;;;;;5054706;28;20056;-71
2021/10/06 10:15:38;;;;;;;8.13;3.90;;;16.10;99.90;;;;;;5054382;28;20029;-71
2021/10/06 10:18:09;;;;;;;5.63;3.90;;;16.10;99.90;;;;;;5054572;28;20151;-70
2021/10/06 10:20:45;;;;;;;6.38;3.70;;;16.00;99.90;;;;;;5054373;28;20116;-73
2021/10/06 10:23:17;;;;;;;7.25;4.25;;;16.30;99.90;;;;;;5054565;28;20537;-71
2021/10/06 10:25:46;;;;;;;8.95;4.10;;;16.00;99.90;;;;;;5053005;28;20025;-71
2021/10/06 10:28:25;;;;;;;8.52;3.70;;;15.90;99.90;;;;;;5053075;28;20021;-71
2021/10/06 10:30:56;;;;;;;7.45;4.07;;;15.90;99.90;;;;;;5054540;28;20021;-70
2021/10/06 10:33:42;;;;;;;8.98;4.15;;;15.90;99.90;;;;;;5053077;28;20029;-70
2021/10/06 10:36:40;;;;;;;5.72;3.80;;;16.20;99.90;;;;;;5052936;28;20025;-71
2021/10/06 10:39:42;;;;;;;10.40;4.05;;;15.70;99.90;;;;;;5054398;28;20029;-70
2021/10/06 10:42:10;;;;;;;12.30;4.88;;;15.70;99.90;;;;;;5054482;28;20473;-71
2021/10/06 10:44:41;;;;;;;7.20;4.30;;;15.60;99.90;;;;;;5054055;28;20106;-71
2021/10/06 10:47:09;;;;;;;10.98;4.82;;;15.70;99.90;;;;;;5054024;28;20111;-71
2021/10/06 10:49:54;;;;;;;7.35;4.38;;;15.70;99.90;;;;;;5054168;28;20028;-71
2021/10/06 10:52:48;;;;;;;12.63;5.50;;;15.70;99.90;;;;;;5052596;28;20025;-71
2021/10/06 10:55:54;;;;;;;11.85;4.55;;;15.80;99.90;;;;;;5053708;28;20027;-71
2021/10/06 10:58:32;;;;;;;15.57;4.88;;;15.70;99.90;;;;;;5052755;28;20039;-71
2021/10/06 11:01:05;;;;;;;12.70;4.72;;;15.70;99.90;;;;;;5053735;28;20056;-71
2021/10/06 11:03:33;;;;;;;10.38;5.25;;;15.80;99.90;;;;;;5053634;28;20100;-71
2021/10/06 11:06:01;;;;;;;8.85;4.88;;;16.00;99.90;;;;;;5052746;28;20120;-71
2021/10/06 11:08:31;;;;;;;10.32;4.30;;;15.70;99.90;;;;;;5052403;28;20511;-71
2021/10/06 11:11:13;;;;;;;11.05;4.78;;;15.80;99.90;;;;;;5052622;28;20120;-71
2021/10/06 11:13:48;;;;;;;12.10;4.18;;;15.70;99.90;;;;;;5053551;28;20104;-72
2021/10/06 11:16:16;;;;;;;12.38;4.82;;;15.70;99.90;;;;;;5053853;28;20056;-71
2021/10/06 11:18:57;;;;;;;14.82;4.60;;;15.70;99.90;;;;;;5053499;28;20025;-71
2021/10/06 11:21:40;;;;;;;10.48;4.90;;;15.60;99.90;;;;;;5053521;28;20025;-71
2021/10/06 11:24:25;;;;;;;11.27;4.88;;;15.60;99.90;;;;;;5051530;28;20021;-70
2021/10/06 11:27:02;;;;;;;13.55;5.18;;;15.60;99.90;;;;;;5052546;28;20032;-71
2021/10/06 11:29:29;;;;;;;11.57;5.10;;;15.70;99.90;;;;;;5051987;28;20520;-70
2021/10/06 11:32:03;;;;;;;13.07;4.72;;;15.70;99.90;;;;;;5052033;28;20024;-70
2021/10/06 11:34:32;;;;;;;16.52;5.30;;;15.70;99.90;;;;;;5053177;28;20017;-71
2021/10/06 11:36:59;;;;;;;11.63;5.25;;;16.20;99.90;;;;;;5053138;28;20096;-71
2021/10/06 11:39:28;;;;;;;12.88;5.40;;;15.70;99.90;;;;;;5051316;28;20504;-70
2021/10/06 11:41:55;;;;;;;9.77;4.90;;;15.70;99.90;;;;;;5053016;28;20052;-72
2021/10/06 11:44:34;;;;;;;11.07;5.28;;;15.60;99.90;;;;;;5053080;28;20024;-70
2021/10/06 11:47:13;;;;;;;13.15;5.55;;;15.50;99.90;;;;;;5053396;28;20017;-70
2021/10/06 11:49:42;;;;;;;14.50;5.45;;;15.40;99.90;;;;;;5051636;28;20043;-70
2021/10/06 11:52:12;;;;;;;17.58;6.55;;;15.40;99.90;;;;;;5052932;28;20033;-70
2021/10/06 11:54:40;;;;;;;12.32;5.65;;;15.30;99.90;;;;;;5052945;28;20013;-70
2021/10/06 11:57:14;;;;;;;11.55;5.53;;;15.30;99.90;;;;;;5052935;28;20017;-70
2021/10/06 11:59:46;;;;;;;13.10;5.60;;;15.30;99.90;;;;;;5052778;28;20056;-70
2021/10/06 12:02:18;;;;;;;12.75;6.18;;;15.20;99.90;;;;;;5052824;28;20021;-70
2021/10/06 12:04:50;;;;;;;11.15;5.45;;;15.20;99.90;;;;;;5052762;28;20501;-71
2021/10/06 12:07:23;;;;;;;11.70;5.63;;;15.10;99.90;;;;;;5052729;28;20024;-70
2021/10/06 12:09:58;;;;;;;13.23;5.75;;;15.10;99.90;;;;;;5052775;28;20431;-70
2021/10/06 12:12:26;;;;;;;11.48;5.45;;;15.00;99.90;;;;;;5051427;28;20035;-71
2021/10/06 12:14:58;;;;;;;8.80;5.82;;;14.90;99.90;;;;;;5052735;28;20503;-70
2021/10/06 12:17:48;;;;;;;13.45;6.18;;;14.90;99.90;;;;;;5052680;28;20405;-71
2021/10/06 12:20:20;;;;;;;12.95;6.18;;;14.90;99.90;;;;;;5052684;28;20111;-71
2021/10/06 12:23:05;;;;;;;12.68;6.60;;;14.80;99.90;;;;;;5052487;28;20021;-71
2021/10/06 12:25:34;;;;;;;14.68;6.75;;;14.80;99.90;;;;;;5052715;28;20460;-71
2021/10/06 12:28:10;;;;;;;11.98;6.50;;;14.80;99.90;;;;;;5052647;28;20021;-70
2021/10/06 12:30:39;;;;;;;11.00;6.20;;;14.80;99.90;;;;;;5052564;28;20017;-70
2021/10/06 12:33:08;;;;;;;15.07;6.82;;;14.70;99.90;;;;;;5052438;28;20101;-70
2021/10/06 12:35:54;;;;;;;14.90;7.32;;;14.90;99.90;;;;;;5055094;28;20027;-70
2021/10/06 12:38:35;;;;;;;12.18;7.65;;;14.80;99.90;;;;;;5055277;28;20021;-71
2021/10/06 12:41:11;;;;;;;12.35;7.47;;;14.70;99.90;;;;;;5056446;28;20481;-70
2021/10/06 12:43:48;;;;;;;13.98;6.78;;;14.70;99.90;;;;;;5056364;28;20466;-70
2021/10/06 12:46:22;;;;;;;15.20;6.88;;;14.70;99.90;;;;;;5056472;28;20017;-71
2021/10/06 12:48:52;;;;;;;11.32;6.20;;;14.60;99.90;;;;;;5056469;28;20016;-71
2021/10/06 12:51:29;;;;;;;15.52;6.20;;;14.60;99.90;;;;;;5056243;28;20031;-70
2021/10/06 12:54:18;;;;;;;14.93;6.72;;;14.50;99.90;;;;;;5056265;28;20025;-70
2021/10/06 12:56:57;;;;;;;15.57;7.30;;;14.40;99.90;;;;;;5056395;28;20029;-71
2021/10/06 12:59:29;;;;;;;10.35;6.85;;;14.40;99.90;;;;;;5056277;28;20473;-70
2021/10/06 13:01:57;;;;;;;11.85;6.68;;;14.40;99.90;;;;;;5056038;28;20024;-70
2021/10/06 13:04:24;;;;;;;12.07;7.00;;;14.30;99.90;;;;;;5055998;28;20024;-70
2021/10/06 13:06:53;;;;;;;10.15;7.20;;;14.30;99.90;;;;;;5055981;28;20067;-71
2021/10/06 13:09:21;;;;;;;11.25;7.28;;;14.30;99.90;;;;;;5056053;28;20017;-70
2021/10/06 13:11:53;;;;;;;12.98;7.97;;;14.30;99.90;;;;;;5054482;28;20397;-70
2021/10/06 13:14:20;;;;;;;13.95;8.23;;;14.20;99.90;;;;;;5055783;28;20103;-70
2021/10/06 13:16:48;;;;;;;10.80;8.52;;;14.20;99.90;;;;;;5055567;28;20055;-70
2021/10/06 13:19:16;;;;;;;10.15;7.35;;;14.20;99.90;;;;;;5054458;28;20029;-70
2021/10/06 13:21:46;;;;;;;9.45;6.80;;;14.30;99.90;;;;;;5055638;28;20021;-71
2021/10/06 13:24:14;;;;;;;12.40;6.80;;;14.30;99.90;;;;;;5055725;28;20021;-70
2021/10/06 13:26:46;;;;;;;11.93;6.70;;;14.30;99.90;;;;;;5055630;28;20047;-70
2021/10/06 13:29:15;;;;;;;9.05;6.47;;;14.40;99.90;;;;;;5055629;28;20020;-70